Time;durP1;ratioP1;P1;durP2;ratioP2;P2;SDS_P1;SDS_P2;PMS_P1;PMS_P2;Temp;Humidity;BMP_temperature;BMP_pressure;BME280_temperature;BME280_humidity;BME280_pressure;Samples;Min_cycle;Max_cycle;Signal;HPM_P1;HPM_P2
2021/12/05 00:24:02;;;;;;;0.10;0.10;;;;;;;-148.56;100.00;61375.16;5049221;28;19961;-31
2021/12/05 00:27:32;;;;;;;0.10;0.10;;;;;;;-148.56;100.00;61375.16;5049257;28;20032;-33
2021/12/05 00:31:34;;;;;;;0.30;0.10;;;;;;;-148.56;100.00;61375.16;5046042;28;20033;-32
2021/12/05 00:46:01;;;;;;;0.30;0.20;;;;;;;-148.56;100.00;61375.16;5046550;28;20043;-33
2021/12/05 00:53:17;;;;;;;0.10;0.10;;;;;;;-148.56;100.00;61375.16;5049498;28;20062;-30
2021/12/05 00:57:04;;;;;;;0.32;0.17;;;;;;;-148.56;100.00;61375.16;5046802;28;20139;-31
2021/12/05 01:07:37;;;;;;;;;;;;;;;;;;;;;
2021/12/05 01:18:08;;;;;;;0.25;0.25;;;;;;;-148.56;100.00;61375.16;5045140;28;19922;-32
2021/12/05 01:21:35;;;;;;;0.10;0.10;;;;;;;-148.56;100.00;61375.16;5041820;28;20116;-29
2021/12/05 01:25:15;;;;;;;0.13;0.10;;;;;;;-148.56;100.00;61375.16;5047627;28;20025;-29
2021/12/05 01:36:08;;;;;;;0.10;0.10;;;;;;;-148.56;100.00;61375.16;5047935;28;20039;-27
2021/12/05 01:43:38;;;;;;;0.22;0.10;;;;;;;-148.56;100.00;61375.16;5046426;28;20039;-32
2021/12/05 02:34:49;;;;;;;;;;;;;;;;;;;;;
2021/12/05 02:41:40;;;;;;;0.40;0.20;;;;;;;-148.56;100.00;61375.16;5045073;28;20078;-30
2021/12/05 02:45:06;;;;;;;0.40;0.17;;;;;;;-148.56;100.00;61375.16;5044998;28;20028;-29
2021/12/05 02:48:32;;;;;;;0.10;0.10;;;;;;;-148.56;100.00;61375.16;5043501;28;20037;-30
2021/12/05 02:52:00;;;;;;;0.10;0.10;;;;;;;-148.56;100.00;61375.16;5046366;28;20025;-31
2021/12/05 02:55:37;;;;;;;0.10;0.10;;;;;;;-148.56;100.00;61375.16;5044886;28;20024;-32
2021/12/05 02:59:18;;;;;;;0.20;0.10;;;;;;;-148.56;100.00;61375.16;5044730;28;20232;-28
2021/12/05 03:02:45;;;;;;;0.10;0.10;;;;;;;-148.56;100.00;61375.16;5046761;28;20029;-31
2021/12/05 03:06:16;;;;;;;0.30;0.17;;;;;;;-148.56;100.00;61375.16;5044991;28;20021;-31
2021/12/05 03:09:40;;;;;;;0.13;0.10;;;;;;;-148.56;100.00;61375.16;5044513;28;20040;-32
2021/12/05 03:13:04;;;;;;;0.08;0.08;;;;;;;-148.56;100.00;61375.16;5044215;28;20028;-30
2021/12/05 03:16:32;;;;;;;0.47;0.20;;;;;;;-148.56;100.00;61375.16;5042172;28;20730;-31
2021/12/05 03:19:56;;;;;;;0.20;0.20;;;;;;;-148.56;100.00;61375.16;5042237;28;20558;-32
2021/12/05 03:23:19;;;;;;;0.10;0.10;;;;;;;-148.56;100.00;61375.16;5052442;28;20036;-32
2021/12/05 03:26:44;;;;;;;0.20;0.20;;;;;;;-148.56;100.00;61375.16;5048109;28;20036;-27
2021/12/05 03:30:10;;;;;;;0.30;0.20;;;;;;;-148.56;100.00;61375.16;5047257;28;20037;-30
2021/12/05 03:33:35;;;;;;;0.20;0.20;;;;;;;-148.56;100.00;61375.16;5046101;28;20115;-29
2021/12/05 03:36:59;;;;;;;0.17;0.10;;;;;;;-148.56;100.00;61375.16;5045560;28;20032;-34
2021/12/05 03:40:23;;;;;;;0.13;0.13;;;;;;;-148.56;100.00;61375.16;5048540;28;20094;-33
2021/12/05 03:43:48;;;;;;;0.35;0.20;;;;;;;-148.56;100.00;61375.16;5049443;28;20403;-29
2021/12/05 03:47:12;;;;;;;0.20;0.20;;;;;;;-148.56;100.00;61375.16;5046165;28;20035;-29
2021/12/05 03:50:36;;;;;;;0.13;0.10;;;;;;;-148.56;100.00;61375.16;5053751;28;20032;-30
2021/12/05 03:54:00;;;;;;;0.20;0.20;;;;;;;-148.56;100.00;61375.16;5046735;28;20039;-29
2021/12/05 03:57:24;;;;;;;0.30;0.30;;;;;;;-148.56;100.00;61375.16;5044755;28;20055;-33
2021/12/05 04:00:49;;;;;;;0.10;0.10;;;;;;;-148.56;100.00;61375.16;5051079;28;20035;-31
2021/12/05 04:04:14;;;;;;;0.20;0.20;;;;;;;-148.56;100.00;61375.16;5048632;28;20064;-32
2021/12/05 04:07:37;;;;;;;0.45;0.20;;;;;;;-148.56;100.00;61375.16;5047415;28;20648;-32
2021/12/05 04:11:03;;;;;;;0.88;0.10;;;;;;;-148.56;100.00;61375.16;5044624;28;20033;-31
2021/12/05 04:14:29;;;;;;;0.65;0.30;;;;;;;-148.56;100.00;61375.16;5049220;28;20234;-31
2021/12/05 04:17:53;;;;;;;0.35;0.13;;;;;;;-148.56;100.00;61375.16;5044784;28;20036;-30
2021/12/05 04:21:17;;;;;;;0.10;0.10;;;;;;;-148.56;100.00;61375.16;5046910;28;20641;-33
2021/12/05 04:24:41;;;;;;;0.63;0.30;;;;;;;-148.56;100.00;61375.16;5046719;28;20520;-33
2021/12/05 04:28:05;;;;;;;0.10;0.10;;;;;;;-148.56;100.00;61375.16;5046880;28;20024;-31
2021/12/05 04:31:29;;;;;;;0.32;0.20;;;;;;;-148.56;100.00;61375.16;5046049;28;20041;-30
2021/12/05 04:34:53;;;;;;;0.10;0.10;;;;;;;-148.56;100.00;61375.16;5047445;28;20511;-33
2021/12/05 04:38:17;;;;;;;0.20;0.10;;;;;;;-148.56;100.00;61375.16;5045666;28;20093;-30
2021/12/05 04:41:41;;;;;;;0.10;0.10;;;;;;;-148.56;100.00;61375.16;5046101;28;20060;-31
2021/12/05 04:45:06;;;;;;;0.20;0.10;;;;;;;-148.56;100.00;61375.16;5037120;28;20791;-32
2021/12/05 04:48:30;;;;;;;0.50;0.20;;;;;;;-148.56;100.00;61375.16;5043440;28;20037;-32
2021/12/05 04:51:55;;;;;;;0.50;0.10;;;;;;;-148.56;100.00;61375.16;5045665;28;20025;-34
2021/12/05 04:55:19;;;;;;;0.00;0.00;;;;;;;-148.56;100.00;61375.16;5045861;28;20025;-30
2021/12/05 04:58:43;;;;;;;0.45;0.22;;;;;;;-148.56;100.00;61375.16;5044933;28;20028;-31
2021/12/05 05:02:07;;;;;;;0.10;0.10;;;;;;;-148.56;100.00;61375.16;5046079;28;20038;-31
2021/12/05 05:05:32;;;;;;;0.40;0.20;;;;;;;-148.56;100.00;61375.16;5045871;28;20453;-30
2021/12/05 05:08:56;;;;;;;0.20;0.20;;;;;;;-148.56;100.00;61375.16;5047686;28;20201;-32
2021/12/05 05:12:21;;;;;;;0.10;0.10;;;;;;;-148.56;100.00;61375.16;5047434;28;20051;-31
2021/12/05 05:15:45;;;;;;;0.10;0.10;;;;;;;-148.56;100.00;61375.16;5045143;28;20032;-29
2021/12/05 05:19:10;;;;;;;0.05;0.05;;;;;;;-148.56;100.00;61375.16;5045131;28;20024;-31
2021/12/05 05:22:48;;;;;;;0.28;0.20;;;;;;;-148.56;100.00;61375.16;5043087;28;20078;-33
2021/12/05 05:45:03;;;;;;;0.10;0.10;;;;;;;-148.56;100.00;61375.16;5029343;28;20036;-27
2021/12/05 05:51:50;;;;;;;0.20;0.20;;;;;;;-148.56;100.00;61375.16;5043526;28;20713;-31
2021/12/05 05:55:14;;;;;;;0.65;0.30;;;;;;;-148.56;100.00;61375.16;5046325;28;20036;-30
2021/12/05 05:58:47;;;;;;;0.20;0.13;;;;;;;-148.56;100.00;61375.16;5045185;28;20051;-30
2021/12/05 06:05:34;;;;;;;0.10;0.10;;;;;;;-148.56;100.00;61375.16;5047087;28;20093;-29
2021/12/05 06:08:59;;;;;;;0.15;0.10;;;;;;;-148.56;100.00;61375.16;5046591;28;20029;-29
2021/12/05 06:12:23;;;;;;;0.10;0.10;;;;;;;-148.56;100.00;61375.16;5046431;28;20035;-30
2021/12/05 06:15:47;;;;;;;0.10;0.10;;;;;;;-148.56;100.00;61375.16;5042614;28;20062;-28
2021/12/05 06:19:12;;;;;;;0.30;0.15;;;;;;;-148.56;100.00;61375.16;5043799;28;20641;-31
2021/12/05 06:22:36;;;;;;;0.40;0.20;;;;;;;-148.56;100.00;61375.16;5042829;28;20060;-32
2021/12/05 06:26:00;;;;;;;0.10;0.10;;;;;;;-148.56;100.00;61375.16;5045625;28;20131;-33
2021/12/05 06:29:28;;;;;;;1.00;0.20;;;;;;;-148.56;100.00;61375.16;5045563;28;20562;-28
2021/12/05 06:47:06;;;;;;;0.20;0.20;;;;;;;-148.56;100.00;61375.16;5041798;28;20037;-30
2021/12/05 06:50:29;;;;;;;0.55;0.15;;;;;;;-148.56;100.00;61375.16;5042627;28;20201;-32
2021/12/05 06:53:53;;;;;;;0.30;0.10;;;;;;;-148.56;100.00;61375.16;5043899;28;20082;-30
2021/12/05 06:57:17;;;;;;;0.20;0.20;;;;;;;-148.56;100.00;61375.16;5045368;28;20483;-34
2021/12/05 07:00:41;;;;;;;0.63;0.20;;;;;;;-148.56;100.00;61375.16;5046149;28;20576;-30
2021/12/05 07:04:15;;;;;;;0.20;0.10;;;;;;;-148.56;100.00;61375.16;5047993;28;20123;-29
2021/12/05 07:07:41;;;;;;;0.38;0.25;;;;;;;-148.56;100.00;61375.16;5048022;28;20480;-30
2021/12/05 07:15:05;;;;;;;0.10;0.10;;;;;;;-148.56;100.00;61375.16;5042299;28;20082;-29
2021/12/05 07:22:14;;;;;;;0.38;0.20;;;;;;;-148.56;100.00;61375.16;5049733;28;20418;-28
2021/12/05 07:25:47;;;;;;;0.15;0.15;;;;;;;-148.56;100.00;61375.16;5048080;28;20041;-31
2021/12/05 07:40:23;;;;;;;0.00;0.00;;;;;;;-148.56;100.00;61375.16;5050098;28;20044;-31
2021/12/05 07:43:47;;;;;;;0.10;0.10;;;;;;;-148.56;100.00;61375.16;5047578;28;20044;-32
2021/12/05 07:47:15;;;;;;;0.43;0.20;;;;;;;-148.56;100.00;61375.16;5048672;28;20032;-32
2021/12/05 07:50:50;;;;;;;0.20;0.10;;;;;;;-148.56;100.00;61375.16;5047197;28;20028;-33
2021/12/05 07:54:32;;;;;;;0.15;0.15;;;;;;;-148.56;100.00;61375.16;5051608;28;20028;-30
2021/12/05 08:16:29;;;;;;;0.10;0.10;;;;;;;-148.56;100.00;61375.16;5046391;28;20059;-28
2021/12/05 08:19:53;;;;;;;0.20;0.20;;;;;;;-148.56;100.00;61375.16;5045971;28;20028;-30
2021/12/05 08:23:18;;;;;;;0.25;0.20;;;;;;;-148.56;100.00;61375.16;5052887;28;20125;-35
2021/12/05 08:26:44;;;;;;;0.10;0.10;;;;;;;-148.56;100.00;61375.16;5048359;28;20033;-31
2021/12/05 08:30:12;;;;;;;0.10;0.10;;;;;;;-148.56;100.00;61375.16;5046148;28;20134;-28
2021/12/05 09:21:21;;;;;;;;;;;;;;;-148.56;100.00;61375.16;5045751;28;20044;-27
2021/12/05 10:13:00;;;;;;;0.20;0.10;;;;;;;-148.56;100.00;61375.16;5045687;28;20056;-33
2021/12/05 10:16:37;;;;;;;0.30;0.20;;;;;;;-148.56;100.00;61375.16;5046602;28;20028;-29
2021/12/05 10:26:07;;;;;;;0.40;0.17;;;;;;;-148.56;100.00;61375.16;5045258;28;20090;-30
2021/12/05 10:35:32;;;;;;;0.60;0.20;;;;;;;-148.56;100.00;61375.16;5045236;28;20846;-34
2021/12/05 10:39:02;;;;;;;0.15;0.10;;;;;;;-148.56;100.00;61375.16;5043746;28;20118;-32
2021/12/05 10:42:40;;;;;;;0.10;0.10;;;;;;;-148.56;100.00;61375.16;5044734;28;20090;-31
2021/12/05 10:46:07;;;;;;;0.10;0.10;;;;;;;-148.56;100.00;61375.16;5045477;28;20101;-28
2021/12/05 10:49:32;;;;;;;0.10;0.10;;;;;;;-148.56;100.00;61375.16;5041555;28;20028;-30
2021/12/05 10:53:14;;;;;;;0.20;0.10;;;;;;;-148.56;100.00;61375.16;5045505;28;20040;-30
2021/12/05 10:56:42;;;;;;;0.05;0.05;;;;;;;-148.56;100.00;61375.16;5043198;28;20099;-31
2021/12/05 11:00:12;;;;;;;0.10;0.10;;;;;;;-148.56;100.00;61375.16;5040542;28;20116;-33
2021/12/05 11:03:36;;;;;;;0.05;0.05;;;;;;;-148.56;100.00;61375.16;5045255;28;20483;-29
2021/12/05 11:07:00;;;;;;;0.10;0.10;;;;;;;-148.56;100.00;61375.16;5048088;28;20033;-31
2021/12/05 11:10:25;;;;;;;0.10;0.10;;;;;;;-148.56;100.00;61375.16;5043926;28;20031;-33
2021/12/05 11:13:50;;;;;;;0.57;0.10;;;;;;;-148.56;100.00;61375.16;5046219;28;20036;-31
2021/12/05 11:17:33;;;;;;;0.30;0.10;;;;;;;-148.56;100.00;61375.16;5043081;28;20090;-30
2021/12/05 11:21:30;;;;;;;0.38;0.20;;;;;;;-148.56;100.00;61375.16;5046369;28;20714;-32
2021/12/05 11:25:09;;;;;;;0.20;0.20;;;;;;;-148.56;100.00;61375.16;5043147;28;20043;-31
2021/12/05 11:28:37;;;;;;;0.10;0.10;;;;;;;-148.56;100.00;61375.16;5042826;28;21432;-33
2021/12/05 11:32:08;;;;;;;0.20;0.13;;;;;;;-148.56;100.00;61375.16;5042767;28;20036;-30
2021/12/05 11:35:32;;;;;;;0.40;0.10;;;;;;;-148.56;100.00;61375.16;5044597;28;20029;-30
2021/12/05 11:38:55;;;;;;;0.10;0.10;;;;;;;-148.56;100.00;61375.16;5045754;28;20025;-34
2021/12/05 11:42:20;;;;;;;0.55;0.15;;;;;;;-148.56;100.00;61375.16;5043463;28;20067;-34
2021/12/05 11:45:52;;;;;;;0.28;0.20;;;;;;;-148.56;100.00;61375.16;5035481;28;20403;-27
2021/12/05 11:49:36;;;;;;;0.20;0.10;;;;;;;-148.56;100.00;61375.16;5049368;28;20151;-29
2021/12/05 11:53:00;;;;;;;0.43;0.30;;;;;;;-148.56;100.00;61375.16;5030205;28;20040;-30
2021/12/05 11:56:31;;;;;;;0.20;0.10;;;;;;;-148.56;100.00;61375.16;5048932;28;20134;-29
2021/12/05 12:00:23;;;;;;;0.38;0.20;;;;;;;-148.56;100.00;61375.16;5053167;28;20705;-29
2021/12/05 12:03:47;;;;;;;0.20;0.20;;;;;;;-148.56;100.00;61375.16;5048699;28;20079;-28
2021/12/05 12:07:16;;;;;;;0.10;0.10;;;;;;;-148.56;100.00;61375.16;5045897;28;20042;-33
2021/12/05 12:10:47;;;;;;;0.20;0.20;;;;;;;-148.56;100.00;61375.16;5046969;28;20028;-32
2021/12/05 12:14:12;;;;;;;0.10;0.10;;;;;;;-148.56;100.00;61375.16;5047873;28;20320;-32
2021/12/05 12:17:36;;;;;;;0.10;0.10;;;;;;;-148.56;100.00;61375.16;5044644;28;20737;-31
2021/12/05 12:21:01;;;;;;;0.20;0.20;;;;;;;-148.56;100.00;61375.16;5045156;28;20028;-33
2021/12/05 12:24:25;;;;;;;0.20;0.20;;;;;;;-148.56;100.00;61375.16;5048293;28;20028;-29
2021/12/05 12:27:50;;;;;;;0.60;0.28;;;;;;;-148.56;100.00;61375.16;5047860;28;20059;-33
2021/12/05 12:31:23;;;;;;;0.20;0.20;;;;;;;-148.56;100.00;61375.16;5045005;28;20040;-29
2021/12/05 12:34:50;;;;;;;0.15;0.15;;;;;;;-148.56;100.00;61375.16;5048751;28;20032;-28
2021/12/05 12:38:18;;;;;;;0.45;0.10;;;;;;;-148.56;100.00;61375.16;5041391;28;20317;-29
2021/12/05 12:42:01;;;;;;;0.10;0.10;;;;;;;-148.56;100.00;61375.16;5047455;28;20040;-30
2021/12/05 12:45:25;;;;;;;0.13;0.13;;;;;;;-148.56;100.00;61375.16;5046533;28;20112;-32
2021/12/05 12:48:54;;;;;;;0.20;0.20;;;;;;;-148.56;100.00;61375.16;5042089;28;20024;-31
2021/12/05 12:52:24;;;;;;;0.25;0.10;;;;;;;-148.56;100.00;61375.16;5047037;28;20024;-30
2021/12/05 12:56:05;;;;;;;0.30;0.15;;;;;;;-148.56;100.00;61375.16;5044058;28;20505;-27
2021/12/05 12:59:34;;;;;;;0.13;0.13;;;;;;;-148.56;100.00;61375.16;5045497;28;20036;-32
2021/12/05 13:03:26;;;;;;;0.20;0.10;;;;;;;-148.56;100.00;61375.16;5044090;28;20127;-30
2021/12/05 13:10:42;;;;;;;;;;;;;;;-148.56;100.00;61375.16;5047189;28;20155;-31
2021/12/05 13:14:12;;;;;;;0.10;0.10;;;;;;;-148.56;100.00;61375.16;5048276;28;20027;-32
2021/12/05 13:17:37;;;;;;;0.10;0.10;;;;;;;-148.56;100.00;61375.16;5045879;28;20838;-32
2021/12/05 13:21:03;;;;;;;0.43;0.20;;;;;;;-148.56;100.00;61375.16;5046992;28;20127;-32
2021/12/05 13:24:44;;;;;;;0.10;0.10;;;;;;;-148.56;100.00;61375.16;5048681;28;20029;-30
2021/12/05 13:28:25;;;;;;;0.00;0.00;;;;;;;-148.56;100.00;61375.16;5043221;28;20032;-33
2021/12/05 13:31:50;;;;;;;0.20;0.20;;;;;;;-148.56;100.00;61375.16;5038733;28;20651;-33
2021/12/05 13:35:35;;;;;;;0.00;0.00;;;;;;;-148.56;100.00;61375.16;5044806;28;20086;-32
2021/12/05 13:38:59;;;;;;;0.15;0.10;;;;;;;-148.56;100.00;61375.16;5047722;28;20371;-30
2021/12/05 13:42:24;;;;;;;0.20;0.20;;;;;;;-148.56;100.00;61375.16;5045383;28;20130;-31
2021/12/05 13:45:59;;;;;;;0.10;0.10;;;;;;;-148.56;100.00;61375.16;5044785;28;20032;-27
2021/12/05 13:49:31;;;;;;;0.13;0.13;;;;;;;-148.56;100.00;61375.16;5041859;28;20055;-33
2021/12/05 13:53:16;;;;;;;0.10;0.10;;;;;;;-148.56;100.00;61375.16;5043472;28;20025;-29
2021/12/05 13:56:43;;;;;;;0.20;0.10;;;;;;;-148.56;100.00;61375.16;5044243;28;20624;-28
2021/12/05 14:00:08;;;;;;;0.10;0.10;;;;;;;-148.56;100.00;61375.16;5046965;28;20084;-29
2021/12/05 14:03:56;;;;;;;0.22;0.20;;;;;;;-148.56;100.00;61375.16;5048901;28;20040;-34
2021/12/05 14:07:39;;;;;;;0.10;0.10;;;;;;;-148.56;100.00;61375.16;5045366;28;20825;-32
2021/12/05 14:11:03;;;;;;;0.20;0.10;;;;;;;-148.56;100.00;61375.16;5045479;28;20121;-29
2021/12/05 14:14:29;;;;;;;0.20;0.20;;;;;;;-148.56;100.00;61375.16;5047301;28;20037;-28
2021/12/05 14:17:54;;;;;;;0.10;0.10;;;;;;;-148.56;100.00;61375.16;5044780;28;20068;-30
2021/12/05 14:21:18;;;;;;;0.08;0.08;;;;;;;-148.56;100.00;61375.16;5044621;28;20020;-32
2021/12/05 14:24:46;;;;;;;0.10;0.10;;;;;;;-148.56;100.00;61375.16;5047810;28;20240;-32
2021/12/05 14:28:14;;;;;;;0.08;0.00;;;;;;;-148.56;100.00;61375.16;5042324;28;20036;-29
2021/12/05 14:31:57;;;;;;;0.00;0.00;;;;;;;-148.56;100.00;61375.16;5045422;28;20032;-31
2021/12/05 14:35:22;;;;;;;0.10;0.10;;;;;;;-148.56;100.00;61375.16;5041441;28;20032;-32
2021/12/05 14:38:46;;;;;;;0.10;0.10;;;;;;;-148.56;100.00;61375.16;5045221;28;20036;-31
2021/12/05 14:42:11;;;;;;;0.15;0.10;;;;;;;-148.56;100.00;61375.16;5045411;28;20121;-29
2021/12/05 14:45:37;;;;;;;0.10;0.08;;;;;;;-148.56;100.00;61375.16;5040202;28;20487;-31
2021/12/05 14:49:04;;;;;;;0.10;0.10;;;;;;;-148.56;100.00;61375.16;5045342;28;20040;-29
2021/12/05 14:52:36;;;;;;;0.20;0.13;;;;;;;-148.56;100.00;61375.16;5046179;28;20056;-29
2021/12/05 14:56:00;;;;;;;0.08;0.08;;;;;;;-148.56;100.00;61375.16;5043878;28;20032;-31
2021/12/05 14:59:24;;;;;;;0.10;0.10;;;;;;;-148.56;100.00;61375.16;5043812;28;20487;-29
2021/12/05 15:03:03;;;;;;;0.10;0.10;;;;;;;-148.56;100.00;61375.16;5044745;28;20150;-28
2021/12/05 15:06:37;;;;;;;0.10;0.10;;;;;;;-148.56;100.00;61375.16;5042820;28;20491;-30
2021/12/05 15:10:02;;;;;;;0.10;0.10;;;;;;;-148.56;100.00;61375.16;5043780;28;20032;-29
2021/12/05 15:13:27;;;;;;;0.28;0.10;;;;;;;-148.56;100.00;61375.16;5043205;28;20040;-32
2021/12/05 15:16:54;;;;;;;0.17;0.10;;;;;;;-148.56;100.00;61375.16;5044960;28;20477;-29
2021/12/05 15:20:19;;;;;;;0.10;0.10;;;;;;;-148.56;100.00;61375.16;5046226;28;20479;-30
2021/12/05 15:23:51;;;;;;;0.00;0.00;;;;;;;-148.56;100.00;61375.16;5048106;28;20071;-33
2021/12/05 15:27:15;;;;;;;0.08;0.00;;;;;;;-148.56;100.00;61375.16;5047191;28;20033;-30
2021/12/05 15:30:46;;;;;;;0.08;0.08;;;;;;;-148.56;100.00;61375.16;5048395;28;20050;-30
2021/12/05 15:34:19;;;;;;;0.10;0.10;;;;;;;-148.56;100.00;61375.16;5049302;28;20048;-36
2021/12/05 15:37:54;;;;;;;0.10;0.10;;;;;;;-148.56;100.00;61375.16;5047801;28;20025;-31
2021/12/05 15:41:18;;;;;;;0.17;0.17;;;;;;;-148.56;100.00;61375.16;5051815;28;20055;-32
2021/12/05 15:44:42;;;;;;;0.30;0.20;;;;;;;-148.56;100.00;61375.16;5049920;28;20035;-32
2021/12/05 15:48:10;;;;;;;0.30;0.10;;;;;;;-148.56;100.00;61375.16;5045654;28;20110;-30
2021/12/05 15:51:35;;;;;;;0.00;0.00;;;;;;;-148.56;100.00;61375.16;5046534;28;20655;-27
2021/12/05 15:54:59;;;;;;;0.17;0.17;;;;;;;-148.56;100.00;61375.16;5045802;28;20129;-28
2021/12/05 15:58:46;;;;;;;0.25;0.13;;;;;;;-148.56;100.00;61375.16;5047990;28;20043;-32
2021/12/05 16:02:11;;;;;;;0.10;0.10;;;;;;;-148.56;100.00;61375.16;5045212;28;20031;-31
2021/12/05 16:05:36;;;;;;;0.10;0.10;;;;;;;-148.56;100.00;61375.16;5044493;28;20152;-32
2021/12/05 16:09:18;;;;;;;0.22;0.20;;;;;;;-148.56;100.00;61375.16;5047483;28;20086;-33
2021/12/05 16:12:43;;;;;;;0.10;0.10;;;;;;;-148.56;100.00;61375.16;5048220;28;21148;-31
2021/12/05 16:16:14;;;;;;;0.10;0.10;;;;;;;-148.56;100.00;61375.16;5049660;28;20040;-32
2021/12/05 16:19:39;;;;;;;0.28;0.15;;;;;;;-148.56;100.00;61375.16;5046189;28;20028;-31
2021/12/05 16:23:16;;;;;;;0.10;0.10;;;;;;;-148.56;100.00;61375.16;5046248;28;20533;-28
2021/12/05 16:26:48;;;;;;;0.10;0.10;;;;;;;-148.56;100.00;61375.16;5049674;28;20475;-32
2021/12/05 16:30:21;;;;;;;0.30;0.20;;;;;;;-148.56;100.00;61375.16;5047155;28;20064;-32
2021/12/05 16:33:50;;;;;;;0.10;0.10;;;;;;;-148.56;100.00;61375.16;5046916;28;20123;-33
2021/12/05 16:37:14;;;;;;;0.35;0.10;;;;;;;-148.56;100.00;61375.16;5046657;28;20051;-28
2021/12/05 16:41:00;;;;;;;0.10;0.10;;;;;;;-148.56;100.00;61375.16;5046688;28;20033;-31
2021/12/05 16:44:24;;;;;;;0.10;0.10;;;;;;;-148.56;100.00;61375.16;5046892;28;20035;-28
2021/12/05 16:47:59;;;;;;;0.10;0.10;;;;;;;-148.56;100.00;61375.16;5043483;28;20061;-33
2021/12/05 16:51:25;;;;;;;0.10;0.10;;;;;;;-148.56;100.00;61375.16;5051467;28;20617;-29
2021/12/05 16:54:57;;;;;;;0.00;0.00;;;;;;;-148.56;100.00;61375.16;5046324;28;20029;-29
2021/12/05 16:58:22;;;;;;;0.10;0.10;;;;;;;-148.56;100.00;61375.16;5036435;28;20633;-33
2021/12/05 17:01:47;;;;;;;0.20;0.20;;;;;;;-148.56;100.00;61375.16;5044665;28;20037;-30
2021/12/05 17:05:20;;;;;;;0.30;0.10;;;;;;;-148.56;100.00;61375.16;5037821;28;20519;-29
2021/12/05 17:08:53;;;;;;;0.10;0.10;;;;;;;-148.56;100.00;61375.16;5043352;28;20841;-27
2021/12/05 17:12:26;;;;;;;0.13;0.13;;;;;;;-148.56;100.00;61375.16;5048166;28;20028;-31
2021/12/05 17:16:08;;;;;;;0.15;0.10;;;;;;;-148.56;100.00;61375.16;5044220;28;20033;-30
2021/12/05 17:19:32;;;;;;;0.10;0.10;;;;;;;-148.56;100.00;61375.16;5047157;28;20227;-33
2021/12/05 17:22:58;;;;;;;0.10;0.10;;;;;;;-148.56;100.00;61375.16;5044929;28;20554;-30
2021/12/05 17:26:27;;;;;;;0.20;0.10;;;;;;;-148.56;100.00;61375.16;5045746;28;20028;-29
2021/12/05 17:29:52;;;;;;;0.50;0.28;;;;;;;-148.56;100.00;61375.16;5046030;28;20024;-32
2021/12/05 17:33:30;;;;;;;0.10;0.10;;;;;;;-148.56;100.00;61375.16;5043566;28;20028;-28
2021/12/05 17:36:54;;;;;;;0.20;0.20;;;;;;;-148.56;100.00;61375.16;5045763;28;20340;-33
2021/12/05 17:40:19;;;;;;;0.20;0.20;;;;;;;-148.56;100.00;61375.16;5044692;28;20039;-32
2021/12/05 17:43:43;;;;;;;0.85;0.30;;;;;;;-148.56;100.00;61375.16;5044979;28;20040;-32
2021/12/05 17:47:07;;;;;;;0.10;0.10;;;;;;;-148.56;100.00;61375.16;5042781;28;20067;-29
2021/12/05 17:50:31;;;;;;;0.25;0.22;;;;;;;-148.56;100.00;61375.16;5048449;28;20027;-32
2021/12/05 17:53:57;;;;;;;0.10;0.03;;;;;;;-148.56;100.00;61375.16;5043463;28;20227;-34
2021/12/05 17:57:31;;;;;;;0.20;0.10;;;;;;;-148.56;100.00;61375.16;5044105;28;20487;-33
2021/12/05 18:02:38;;;;;;;0.85;0.20;;;;;;;-148.56;100.00;61375.16;5045070;28;20032;-28
2021/12/05 18:04:42;;;;;;;0.00;0.00;;;;;;;-148.56;100.00;61375.16;5044335;28;20124;-31
2021/12/05 18:08:08;;;;;;;0.30;0.10;;;;;;;-148.56;100.00;61375.16;5045388;28;20032;-30
2021/12/05 18:11:34;;;;;;;0.17;0.17;;;;;;;-148.56;100.00;61375.16;5045484;28;20020;-30
2021/12/05 18:15:00;;;;;;;0.10;0.10;;;;;;;-148.56;100.00;61375.16;5045136;28;20198;-30
2021/12/05 18:18:24;;;;;;;0.20;0.20;;;;;;;-148.56;100.00;61375.16;5043709;28;20108;-30
2021/12/05 18:21:48;;;;;;;0.20;0.20;;;;;;;-148.56;100.00;61375.16;5045593;28;20043;-27
2021/12/05 18:25:13;;;;;;;0.10;0.10;;;;;;;-148.56;100.00;61375.16;5047120;28;20901;-30
2021/12/05 18:28:38;;;;;;;0.38;0.28;;;;;;;-148.56;100.00;61375.16;5043207;28;20028;-29
2021/12/05 18:32:02;;;;;;;0.17;0.17;;;;;;;-148.56;100.00;61375.16;5045750;28;20059;-31
2021/12/05 18:35:31;;;;;;;0.20;0.20;;;;;;;-148.56;100.00;61375.16;5041719;28;20388;-29
2021/12/05 18:38:55;;;;;;;0.35;0.25;;;;;;;-148.56;100.00;61375.16;5043688;28;20545;-30
2021/12/05 18:42:19;;;;;;;0.20;0.20;;;;;;;-148.56;100.00;61375.16;5045195;28;20029;-34
2021/12/05 18:45:43;;;;;;;0.20;0.20;;;;;;;-148.56;100.00;61375.16;5046652;28;20048;-32
2021/12/05 18:49:07;;;;;;;0.20;0.20;;;;;;;-148.56;100.00;61375.16;5043374;28;20036;-31
2021/12/05 18:52:34;;;;;;;0.40;0.40;;;;;;;-148.56;100.00;61375.16;5047015;28;20056;-31
2021/12/05 18:55:58;;;;;;;0.52;0.40;;;;;;;-148.56;100.00;61375.16;5047556;28;20031;-33
2021/12/05 18:59:24;;;;;;;0.55;0.40;;;;;;;-148.56;100.00;61375.16;5048781;28;20774;-30
2021/12/05 19:06:37;;;;;;;0.30;0.30;;;;;;;-148.56;100.00;61375.16;5046741;28;20039;-28
2021/12/05 19:13:43;;;;;;;;;;;;;;;-148.56;100.00;61375.16;5047622;28;20206;-33
2021/12/05 19:17:20;;;;;;;0.32;0.22;;;;;;;-148.56;100.00;61375.16;5050233;28;20420;-35
2021/12/05 19:20:45;;;;;;;0.30;0.30;;;;;;;-148.56;100.00;61375.16;5046821;28;20099;-29
2021/12/05 19:24:09;;;;;;;0.40;0.30;;;;;;;-148.56;100.00;61375.16;5049002;28;20028;-33
2021/12/05 19:27:33;;;;;;;0.30;0.30;;;;;;;-148.56;100.00;61375.16;5047602;28;20116;-33
2021/12/05 19:30:57;;;;;;;0.35;0.35;;;;;;;-148.56;100.00;61375.16;5048696;28;20120;-33
2021/12/05 19:34:21;;;;;;;0.40;0.40;;;;;;;-148.56;100.00;61375.16;5027804;28;20027;-34
2021/12/05 19:37:46;;;;;;;0.50;0.45;;;;;;;-148.56;100.00;61375.16;5036121;28;20176;-32
2021/12/05 19:41:10;;;;;;;0.43;0.40;;;;;;;-148.56;100.00;61375.16;5036848;28;20086;-28
2021/12/05 19:44:35;;;;;;;0.60;0.60;;;;;;;-148.56;100.00;61375.16;5035376;28;20044;-28
2021/12/05 19:47:59;;;;;;;0.43;0.43;;;;;;;-148.56;100.00;61375.16;5032550;28;20141;-32
2021/12/05 19:51:24;;;;;;;0.30;0.30;;;;;;;-148.56;100.00;61375.16;5040385;28;20729;-32
2021/12/05 19:54:48;;;;;;;0.38;0.38;;;;;;;-148.56;100.00;61375.16;5048317;28;20490;-30
2021/12/05 19:58:11;;;;;;;0.47;0.40;;;;;;;-148.56;100.00;61375.16;5047572;28;20077;-31
2021/12/05 20:01:36;;;;;;;0.30;0.30;;;;;;;-148.56;100.00;61375.16;5046882;28;20044;-31
2021/12/05 20:05:00;;;;;;;0.30;0.30;;;;;;;-148.56;100.00;61375.16;5047160;28;20436;-31
2021/12/05 20:08:23;;;;;;;0.40;0.40;;;;;;;-148.56;100.00;61375.16;5048597;28;20920;-32
2021/12/05 20:11:47;;;;;;;0.50;0.30;;;;;;;-148.56;100.00;61375.16;5044887;28;20033;-31
2021/12/05 20:15:11;;;;;;;0.40;0.40;;;;;;;-148.56;100.00;61375.16;5040108;28;20055;-30
2021/12/05 20:18:35;;;;;;;0.43;0.40;;;;;;;-148.56;100.00;61375.16;5045598;28;20623;-32
2021/12/05 20:22:01;;;;;;;0.30;0.30;;;;;;;-148.56;100.00;61375.16;5049147;28;20938;-29
2021/12/05 20:25:26;;;;;;;0.50;0.50;;;;;;;-148.56;100.00;61375.16;5047650;28;20846;-27
2021/12/05 20:28:50;;;;;;;0.52;0.52;;;;;;;-148.56;100.00;61375.16;5045042;28;20033;-29
2021/12/05 20:32:14;;;;;;;0.43;0.40;;;;;;;-148.56;100.00;61375.16;5045695;28;20071;-29
2021/12/05 20:35:39;;;;;;;0.55;0.45;;;;;;;-148.56;100.00;61375.16;5047464;28;20032;-30
2021/12/05 20:39:06;;;;;;;1.08;0.82;;;;;;;-148.56;100.00;61375.16;5046336;28;20021;-28
2021/12/05 20:42:30;;;;;;;0.60;0.60;;;;;;;-148.56;100.00;61375.16;5047194;28;20025;-30
2021/12/05 20:45:54;;;;;;;0.40;0.40;;;;;;;-148.56;100.00;61375.16;5043114;28;20110;-34
2021/12/05 20:49:21;;;;;;;0.50;0.50;;;;;;;-148.56;100.00;61375.16;5042742;28;20032;-31
2021/12/05 20:52:46;;;;;;;0.40;0.40;;;;;;;-148.56;100.00;61375.16;5047766;28;20028;-32
2021/12/05 20:56:12;;;;;;;0.60;0.50;;;;;;;-148.56;100.00;61375.16;5047754;28;20056;-32
2021/12/05 20:59:39;;;;;;;0.40;0.40;;;;;;;-148.56;100.00;61375.16;5042965;28;20024;-32